Time;durP1;ratioP1;P1;durP2;ratioP2;P2;SDS_P1;SDS_P2;PMS_P1;PMS_P2;Temp;Humidity;BMP_temperature;BMP_pressure;BME280_temperature;BME280_humidity;BME280_pressure;Samples;Min_cycle;Max_cycle;Signal;HPM_P1;HPM_P2
2023/03/06 00:01:16;;;;;;;7.15;1.85;;;2.70;99.90;;;;;;4992886;28;20053;-72
2023/03/06 00:03:42;;;;;;;5.97;1.75;;;2.70;99.90;;;;;;4992673;28;20487;-70
2023/03/06 00:06:07;;;;;;;5.68;1.60;;;2.80;99.90;;;;;;4993715;28;20046;-72
2023/03/06 00:08:33;;;;;;;7.65;1.67;;;2.80;99.90;;;;;;4976371;28;20049;-71
2023/03/06 00:10:59;;;;;;;5.18;1.90;;;2.80;99.90;;;;;;4992693;28;20093;-71
2023/03/06 00:13:28;;;;;;;7.15;1.70;;;2.80;99.90;;;;;;4992525;28;20538;-71
2023/03/06 00:15:57;;;;;;;6.20;2.00;;;2.80;99.90;;;;;;4976304;28;20042;-71
2023/03/06 00:18:23;;;;;;;6.70;1.58;;;2.90;99.90;;;;;;4997732;28;20451;-71
2023/03/06 00:20:48;;;;;;;3.80;1.42;;;2.90;99.90;;;;;;4998931;28;20128;-72
2023/03/06 00:23:14;;;;;;;6.05;1.50;;;3.00;99.90;;;;;;4999237;28;20042;-72
2023/03/06 00:25:44;;;;;;;9.25;2.00;;;3.00;99.90;;;;;;4998870;28;20458;-71
2023/03/06 00:28:11;;;;;;;4.65;1.75;;;2.90;99.90;;;;;;4982588;28;20052;-71
2023/03/06 00:30:37;;;;;;;6.47;2.10;;;2.90;99.90;;;;;;4999101;28;20149;-71
2023/03/06 00:33:02;;;;;;;3.80;1.60;;;3.00;99.90;;;;;;4982597;28;20489;-71
2023/03/06 00:35:28;;;;;;;8.88;1.80;;;3.00;99.90;;;;;;4998789;28;20128;-71
2023/03/06 00:37:53;;;;;;;8.25;1.92;;;3.00;99.90;;;;;;4998916;28;20042;-71
2023/03/06 00:40:20;;;;;;;5.95;1.70;;;3.00;99.90;;;;;;4998762;28;20074;-71
2023/03/06 00:42:47;;;;;;;7.53;1.83;;;3.00;99.90;;;;;;4998772;28;20518;-70
2023/03/06 00:45:13;;;;;;;10.30;1.75;;;3.00;99.90;;;;;;4998710;28;20046;-71
2023/03/06 00:47:39;;;;;;;7.13;1.80;;;2.90;99.90;;;;;;4998684;28;20046;-70
2023/03/06 00:50:05;;;;;;;7.88;1.95;;;2.90;99.90;;;;;;4998666;28;20092;-71
2023/03/06 00:52:30;;;;;;;7.55;1.90;;;3.00;99.90;;;;;;4998630;28;20042;-72
2023/03/06 00:54:56;;;;;;;5.35;1.60;;;3.00;99.90;;;;;;4998551;28;20045;-71
2023/03/06 00:57:22;;;;;;;7.80;2.25;;;3.00;99.90;;;;;;4998853;28;20080;-70
2023/03/06 00:59:47;;;;;;;7.97;1.80;;;2.90;99.90;;;;;;4982370;28;20104;-71
2023/03/06 01:02:13;;;;;;;4.43;1.52;;;2.90;99.90;;;;;;4998831;28;20070;-71
2023/03/06 01:04:40;;;;;;;5.03;1.50;;;2.90;99.90;;;;;;4998895;28;20082;-70
2023/03/06 01:07:05;;;;;;;5.70;1.70;;;3.00;99.90;;;;;;4982065;28;20081;-71
2023/03/06 01:09:31;;;;;;;7.88;1.92;;;3.00;99.90;;;;;;4998767;28;20133;-71
2023/03/06 01:11:56;;;;;;;5.72;1.92;;;3.00;99.90;;;;;;4982295;28;20509;-71
2023/03/06 01:14:22;;;;;;;6.50;1.70;;;2.90;99.90;;;;;;4982298;28;20038;-71
2023/03/06 01:16:48;;;;;;;4.63;1.65;;;2.90;99.90;;;;;;4998356;28;20076;-71
2023/03/06 01:19:13;;;;;;;5.50;1.50;;;3.00;99.90;;;;;;4982186;28;20392;-71
2023/03/06 01:21:39;;;;;;;5.07;1.67;;;3.00;99.90;;;;;;4998415;28;20042;-71
2023/03/06 01:24:05;;;;;;;3.83;1.52;;;3.00;99.90;;;;;;4982154;28;20049;-72
2023/03/06 01:26:31;;;;;;;6.60;1.55;;;3.00;99.90;;;;;;4982022;28;20049;-71
2023/03/06 01:28:56;;;;;;;6.20;2.28;;;3.10;99.90;;;;;;4979774;28;20047;-72
2023/03/06 01:31:23;;;;;;;7.47;1.70;;;3.10;99.90;;;;;;4979300;28;20108;-72
2023/03/06 01:33:49;;;;;;;5.85;1.80;;;3.10;99.90;;;;;;4995254;28;20415;-72
2023/03/06 01:36:15;;;;;;;5.20;1.60;;;3.20;99.90;;;;;;4995057;28;20034;-70
2023/03/06 01:38:43;;;;;;;5.28;1.67;;;3.20;99.90;;;;;;4995183;28;20053;-71
2023/03/06 01:41:09;;;;;;;3.85;1.38;;;3.20;99.90;;;;;;4978938;28;20046;-72
2023/03/06 01:43:38;;;;;;;5.10;1.80;;;3.10;99.90;;;;;;4995090;28;20053;-71
2023/03/06 01:46:24;;;;;;;7.63;1.60;;;3.20;99.90;;;;;;4995346;28;20031;-71
2023/03/06 01:49:05;;;;;;;5.10;1.40;;;3.10;99.90;;;;;;4995033;28;20050;-71
2023/03/06 01:51:45;;;;;;;4.80;1.75;;;3.10;99.90;;;;;;4978724;28;20046;-71
2023/03/06 01:54:16;;;;;;;5.78;1.63;;;3.10;99.90;;;;;;4978780;28;20034;-71
2023/03/06 01:56:45;;;;;;;4.68;2.03;;;3.20;99.90;;;;;;4994806;28;20043;-70
2023/03/06 01:59:11;;;;;;;3.65;1.42;;;3.20;99.90;;;;;;4994771;28;20034;-71
2023/03/06 02:01:38;;;;;;;8.82;2.00;;;3.20;99.90;;;;;;4995070;28;20042;-71
2023/03/06 02:04:04;;;;;;;5.20;1.40;;;3.20;99.90;;;;;;4994710;28;20069;-71
2023/03/06 02:06:34;;;;;;;3.38;1.30;;;3.30;99.90;;;;;;4994432;28;20092;-71
2023/03/06 02:09:01;;;;;;;7.32;1.73;;;3.30;99.90;;;;;;4978714;28;20570;-71
2023/03/06 02:11:26;;;;;;;5.53;1.60;;;3.40;99.90;;;;;;4994742;28;20050;-71
2023/03/06 02:13:53;;;;;;;5.80;1.30;;;3.40;99.90;;;;;;4978272;28;20403;-71
2023/03/06 02:16:31;;;;;;;3.72;1.27;;;3.40;99.90;;;;;;4994411;28;20053;-70
2023/03/06 02:18:59;;;;;;;4.88;1.60;;;3.40;99.90;;;;;;4994476;28;20042;-71
2023/03/06 02:21:29;;;;;;;6.40;1.42;;;3.40;99.90;;;;;;4994663;28;20034;-72
2023/03/06 02:24:16;;;;;;;3.78;1.52;;;3.40;99.90;;;;;;4994430;28;20035;-71
2023/03/06 02:26:44;;;;;;;4.55;1.30;;;3.40;99.90;;;;;;4994253;28;20542;-70
2023/03/06 02:29:10;;;;;;;3.55;1.30;;;3.50;99.90;;;;;;4994178;28;20050;-71
2023/03/06 02:31:35;;;;;;;3.65;1.10;;;3.50;99.90;;;;;;4994161;28;20042;-71
2023/03/06 02:34:04;;;;;;;3.42;1.05;;;3.40;99.90;;;;;;4994159;28;20042;-71
2023/03/06 02:36:32;;;;;;;4.75;1.13;;;3.40;99.90;;;;;;4994005;28;20399;-71
2023/03/06 02:38:58;;;;;;;6.28;1.45;;;3.40;99.90;;;;;;4994102;28;20411;-71
2023/03/06 02:41:24;;;;;;;6.60;1.42;;;3.50;99.90;;;;;;4977544;28;20082;-71
2023/03/06 02:43:51;;;;;;;3.80;1.00;;;3.40;99.90;;;;;;4993919;28;20042;-71
2023/03/06 02:46:17;;;;;;;6.40;2.00;;;3.50;99.90;;;;;;4994405;28;20061;-70
2023/03/06 02:48:42;;;;;;;4.90;1.20;;;3.50;99.90;;;;;;4977921;28;20495;-72
2023/03/06 02:51:08;;;;;;;4.65;1.65;;;3.40;99.90;;;;;;4977854;28;20415;-72
2023/03/06 02:53:33;;;;;;;6.00;1.60;;;3.50;99.90;;;;;;4977637;28;20039;-72
2023/03/06 02:55:59;;;;;;;7.75;1.38;;;3.40;99.90;;;;;;4994018;28;20030;-71
2023/03/06 02:58:25;;;;;;;8.25;1.40;;;3.40;99.90;;;;;;4977640;28;20042;-71
2023/03/06 03:00:51;;;;;;;5.55;1.48;;;3.50;99.90;;;;;;4993620;28;20057;-71
2023/03/06 03:03:16;;;;;;;2.75;1.10;;;3.40;99.90;;;;;;4977382;28;20042;-72
2023/03/06 03:05:42;;;;;;;7.07;1.23;;;3.40;99.90;;;;;;4993583;28;20034;-72
2023/03/06 03:08:08;;;;;;;3.45;1.27;;;3.40;99.90;;;;;;4977118;28;20279;-71
2023/03/06 03:10:33;;;;;;;4.25;1.30;;;3.40;99.90;;;;;;4993406;28;20076;-70
2023/03/06 03:12:59;;;;;;;6.00;1.35;;;3.50;99.90;;;;;;4993381;28;20042;-72
2023/03/06 03:15:25;;;;;;;4.70;1.48;;;3.50;99.90;;;;;;4993636;28;20042;-71
2023/03/06 03:17:50;;;;;;;5.68;1.27;;;3.50;99.90;;;;;;4977107;28;20455;-72
2023/03/06 03:20:19;;;;;;;4.72;1.17;;;3.40;99.90;;;;;;4993331;28;20045;-72
2023/03/06 03:22:49;;;;;;;4.70;1.25;;;3.50;99.90;;;;;;4977310;28;20449;-72
2023/03/06 03:25:15;;;;;;;3.38;0.95;;;3.50;99.90;;;;;;4993180;28;20050;-71
2023/03/06 03:27:41;;;;;;;4.32;1.08;;;3.50;99.90;;;;;;4993101;28;20073;-71
2023/03/06 03:30:08;;;;;;;3.97;1.60;;;3.40;99.90;;;;;;4993127;28;20077;-71
2023/03/06 03:32:33;;;;;;;4.28;1.10;;;3.50;99.90;;;;;;5000757;23;20280;-69
2023/03/06 03:34:59;;;;;;;3.67;0.80;;;3.60;99.90;;;;;;4993097;28;20138;-68
2023/03/06 03:37:24;;;;;;;3.80;0.75;;;3.50;99.90;;;;;;4993375;28;20034;-68
2023/03/06 03:39:50;;;;;;;2.72;0.60;;;3.50;99.90;;;;;;4993034;28;20481;-68
2023/03/06 03:42:15;;;;;;;1.52;0.73;;;3.50;99.90;;;;;;4992941;28;20042;-68
2023/03/06 03:44:41;;;;;;;2.58;0.55;;;3.50;99.90;;;;;;4992898;28;20041;-68
2023/03/06 03:47:07;;;;;;;3.55;1.00;;;3.60;99.90;;;;;;4993125;28;20042;-69
2023/03/06 03:49:32;;;;;;;3.15;0.68;;;3.50;99.90;;;;;;4992849;28;20049;-69
2023/03/06 03:51:58;;;;;;;2.42;0.80;;;3.50;99.90;;;;;;4992042;28;20046;-69
2023/03/06 03:54:23;;;;;;;2.28;0.70;;;3.60;99.90;;;;;;4992753;28;20084;-69
2023/03/06 03:56:49;;;;;;;2.63;1.00;;;3.60;99.90;;;;;;4993006;28;20027;-69
2023/03/06 03:59:15;;;;;;;2.33;0.75;;;3.70;99.90;;;;;;4976574;28;20617;-69
2023/03/06 04:01:40;;;;;;;1.67;0.65;;;3.60;99.90;;;;;;4992972;28;20076;-69
2023/03/06 04:04:06;;;;;;;3.83;0.90;;;3.60;99.90;;;;;;4976647;28;20127;-69
2023/03/06 04:06:32;;;;;;;2.45;0.70;;;3.70;99.90;;;;;;4992662;28;20042;-69
2023/03/06 04:08:57;;;;;;;2.35;0.80;;;3.60;99.90;;;;;;4992610;28;20046;-69
2023/03/06 04:11:23;;;;;;;1.65;0.70;;;3.70;99.90;;;;;;4992542;28;20042;-69
2023/03/06 04:13:49;;;;;;;2.30;0.52;;;3.70;99.90;;;;;;4976282;28;20078;-69
2023/03/06 04:16:14;;;;;;;1.73;0.60;;;3.60;99.90;;;;;;4992534;28;20045;-69
2023/03/06 04:18:40;;;;;;;2.88;0.70;;;3.60;99.90;;;;;;4992478;28;20125;-68
2023/03/06 04:21:06;;;;;;;1.48;0.88;;;3.60;99.90;;;;;;4992732;28;20077;-68
2023/03/06 04:23:31;;;;;;;1.33;0.90;;;3.50;99.90;;;;;;4992637;28;20483;-68
2023/03/06 04:25:57;;;;;;;1.67;0.70;;;3.40;99.90;;;;;;4992704;28;20494;-69
2023/03/06 04:28:23;;;;;;;2.50;0.90;;;3.30;99.90;;;;;;4992448;28;20046;-68
2023/03/06 04:30:48;;;;;;;1.40;0.80;;;3.20;99.90;;;;;;4992628;28;20413;-69
2023/03/06 04:33:14;;;;;;;2.00;1.00;;;3.10;99.90;;;;;;4992627;28;20558;-69
2023/03/06 04:35:40;;;;;;;1.60;1.02;;;3.10;99.90;;;;;;4976150;28;20411;-69
2023/03/06 04:38:05;;;;;;;1.15;0.70;;;3.00;99.90;;;;;;4992304;28;20042;-68
2023/03/06 04:40:33;;;;;;;1.25;0.80;;;3.00;99.90;;;;;;4992319;28;20034;-68
2023/03/06 04:42:59;;;;;;;1.77;0.85;;;3.00;99.90;;;;;;4976539;28;20065;-69
2023/03/06 04:45:27;;;;;;;2.10;0.88;;;2.90;99.90;;;;;;4992271;28;20042;-68
2023/03/06 04:47:53;;;;;;;1.42;1.33;;;3.00;99.90;;;;;;4992284;28;20047;-68
2023/03/06 04:50:20;;;;;;;1.42;0.80;;;2.90;99.90;;;;;;4992442;28;20430;-68
2023/03/06 04:52:46;;;;;;;1.08;0.65;;;2.90;99.90;;;;;;4992078;28;20038;-68
2023/03/06 04:55:13;;;;;;;1.15;0.70;;;2.90;99.90;;;;;;4992186;28;20045;-68
2023/03/06 04:57:40;;;;;;;0.98;0.70;;;2.90;99.90;;;;;;4992183;28;20078;-68
2023/03/06 05:00:15;;;;;;;1.23;1.00;;;3.00;99.90;;;;;;4992146;28;20516;-69
2023/03/06 05:02:43;;;;;;;1.40;0.75;;;3.00;99.90;;;;;;4992362;28;20086;-69
2023/03/06 05:05:09;;;;;;;1.17;0.60;;;3.00;99.90;;;;;;4995872;28;20101;-69
2023/03/06 05:07:35;;;;;;;2.08;0.70;;;3.00;99.90;;;;;;4996013;28;20050;-68
2023/03/06 05:10:01;;;;;;;0.93;0.60;;;3.00;99.90;;;;;;4979928;28;20450;-68
2023/03/06 05:12:26;;;;;;;1.48;0.40;;;3.00;99.90;;;;;;4995557;28;20510;-69
2023/03/06 05:14:52;;;;;;;2.15;0.73;;;3.00;99.90;;;;;;4995672;28;20047;-69
2023/03/06 05:17:18;;;;;;;1.92;0.82;;;3.00;99.90;;;;;;4996696;28;20026;-68
2023/03/06 05:19:43;;;;;;;3.35;0.93;;;3.00;99.90;;;;;;4979347;28;20491;-68
2023/03/06 05:22:09;;;;;;;2.53;0.70;;;3.00;99.90;;;;;;4995427;28;20042;-68
2023/03/06 05:24:35;;;;;;;0.98;0.60;;;3.00;99.90;;;;;;4995715;28;20047;-68
2023/03/06 05:27:01;;;;;;;2.22;1.00;;;2.90;99.90;;;;;;4995521;28;20042;-68
2023/03/06 05:29:26;;;;;;;0.93;0.47;;;2.90;99.90;;;;;;4995432;28;20121;-68
2023/03/06 05:31:52;;;;;;;1.02;0.70;;;2.90;99.90;;;;;;4995194;28;20117;-68
2023/03/06 05:34:17;;;;;;;1.67;1.00;;;2.90;99.90;;;;;;4995231;28;20046;-68
2023/03/06 05:36:43;;;;;;;1.73;0.75;;;2.90;99.90;;;;;;4995272;28;20038;-68
2023/03/06 05:39:09;;;;;;;3.70;0.80;;;2.90;99.90;;;;;;4979259;28;20061;-68
2023/03/06 05:41:35;;;;;;;1.77;0.88;;;2.90;99.90;;;;;;4995438;28;20054;-68
2023/03/06 05:44:00;;;;;;;1.58;0.80;;;2.80;99.90;;;;;;4995098;28;20494;-68
2023/03/06 05:46:26;;;;;;;0.88;0.70;;;2.80;99.90;;;;;;4995096;28;20042;-68
2023/03/06 05:48:56;;;;;;;1.05;0.60;;;2.80;99.90;;;;;;4995082;28;20129;-68
2023/03/06 05:51:23;;;;;;;1.77;0.88;;;2.70;99.90;;;;;;4994947;28;20049;-68
2023/03/06 05:53:48;;;;;;;1.33;0.63;;;2.70;99.90;;;;;;4994870;28;20057;-68
2023/03/06 05:56:14;;;;;;;2.40;0.80;;;2.70;99.90;;;;;;4994910;28;20038;-68
2023/03/06 05:58:40;;;;;;;2.10;0.80;;;2.70;99.90;;;;;;4995129;28;20039;-68
2023/03/06 06:01:19;;;;;;;1.20;0.80;;;2.70;99.90;;;;;;4994806;28;20395;-68
2023/03/06 06:03:45;;;;;;;1.30;0.80;;;2.70;99.90;;;;;;4994734;28;20038;-68
2023/03/06 06:06:13;;;;;;;1.25;0.70;;;2.70;99.90;;;;;;4994759;28;20047;-68
2023/03/06 06:08:39;;;;;;;3.03;0.90;;;2.60;99.90;;;;;;4994710;28;20077;-68
2023/03/06 06:11:06;;;;;;;1.80;0.85;;;2.70;99.90;;;;;;4994801;28;20074;-68
2023/03/06 06:13:32;;;;;;;1.55;0.90;;;2.60;99.90;;;;;;4994541;28;20050;-68
2023/03/06 06:15:58;;;;;;;2.05;1.00;;;2.60;99.90;;;;;;4993852;28;20038;-68
2023/03/06 06:18:23;;;;;;;2.03;1.10;;;2.60;99.90;;;;;;4994499;28;20276;-68
2023/03/06 06:20:49;;;;;;;2.42;1.40;;;2.60;99.90;;;;;;4994710;28;20133;-68
2023/03/06 06:23:14;;;;;;;2.95;1.30;;;2.50;99.90;;;;;;4994807;28;20530;-68
2023/03/06 06:25:40;;;;;;;3.28;1.42;;;2.60;99.90;;;;;;4994356;28;20034;-68
2023/03/06 06:28:06;;;;;;;1.20;1.00;;;2.50;99.90;;;;;;4994582;28;20042;-68
2023/03/06 06:30:33;;;;;;;1.55;1.00;;;2.50;99.90;;;;;;4994537;28;20030;-68
2023/03/06 06:32:58;;;;;;;2.10;1.10;;;2.50;99.90;;;;;;4994080;28;20046;-70
2023/03/06 06:35:25;;;;;;;1.83;1.20;;;2.50;99.90;;;;;;4994408;28;20047;-70
2023/03/06 06:37:51;;;;;;;3.13;1.42;;;2.50;99.90;;;;;;4994394;28;20038;-70
2023/03/06 06:40:17;;;;;;;3.60;1.25;;;2.40;99.90;;;;;;4994107;28;20038;-69
2023/03/06 06:42:45;;;;;;;1.38;1.10;;;2.40;99.90;;;;;;4994200;28;20129;-69
2023/03/06 06:45:11;;;;;;;1.55;1.27;;;2.40;99.90;;;;;;4993981;28;20089;-69
2023/03/06 06:47:40;;;;;;;1.58;1.23;;;2.40;99.90;;;;;;4993940;28;20073;-68
2023/03/06 06:50:07;;;;;;;1.45;1.10;;;2.40;99.90;;;;;;4993916;28;20100;-68
2023/03/06 06:52:32;;;;;;;3.20;1.40;;;2.50;99.90;;;;;;4993618;28;20081;-68
2023/03/06 06:54:58;;;;;;;3.53;1.48;;;2.60;99.90;;;;;;4993904;28;20074;-68
2023/03/06 06:57:23;;;;;;;4.82;1.52;;;2.60;99.90;;;;;;4993747;28;20050;-68
2023/03/06 06:59:49;;;;;;;2.58;1.60;;;2.60;99.90;;;;;;4993698;28;20042;-68
2023/03/06 07:02:15;;;;;;;2.80;1.52;;;2.70;99.90;;;;;;4993603;28;20050;-68
2023/03/06 07:04:41;;;;;;;2.05;1.73;;;2.60;99.90;;;;;;4977466;28;20092;-68
2023/03/06 07:07:07;;;;;;;2.60;1.50;;;2.70;99.90;;;;;;4993880;28;20133;-68
2023/03/06 07:09:32;;;;;;;2.60;1.65;;;2.70;99.90;;;;;;4993503;28;20522;-68
2023/03/06 07:11:58;;;;;;;4.40;1.67;;;2.70;99.90;;;;;;4993297;28;20034;-68
2023/03/06 07:14:24;;;;;;;3.78;1.50;;;2.70;99.90;;;;;;4994483;28;20045;-68
2023/03/06 07:16:49;;;;;;;2.70;1.50;;;2.70;99.90;;;;;;4993404;28;20510;-68
2023/03/06 07:19:15;;;;;;;3.85;1.70;;;2.60;99.90;;;;;;4977196;28;20038;-68
2023/03/06 07:21:40;;;;;;;2.97;1.30;;;2.60;99.90;;;;;;4993340;28;20042;-68
2023/03/06 07:24:06;;;;;;;4.35;1.73;;;2.60;99.90;;;;;;4993193;28;20089;-68
2023/03/06 07:26:32;;;;;;;4.03;1.83;;;2.60;99.90;;;;;;4992482;28;20073;-68
2023/03/06 07:28:57;;;;;;;2.22;1.60;;;2.60;99.90;;;;;;4993068;28;20053;-68
2023/03/06 07:31:25;;;;;;;3.97;2.05;;;2.60;99.90;;;;;;4993295;28;20034;-68
2023/03/06 07:33:52;;;;;;;5.57;2.70;;;2.60;99.90;;;;;;4992967;28;20048;-68
2023/03/06 07:36:19;;;;;;;4.88;3.17;;;2.60;99.90;;;;;;4993386;28;20113;-68
2023/03/06 07:38:44;;;;;;;3.25;2.13;;;2.60;99.90;;;;;;4993067;28;20042;-68
2023/03/06 07:41:15;;;;;;;3.58;1.70;;;2.60;99.90;;;;;;4992953;28;20475;-68
2023/03/06 07:43:42;;;;;;;4.00;1.77;;;2.50;99.90;;;;;;4992950;28;20561;-68
2023/03/06 07:46:09;;;;;;;3.85;1.73;;;2.50;99.90;;;;;;4993175;28;20490;-68
2023/03/06 07:48:36;;;;;;;2.80;1.90;;;2.50;99.90;;;;;;4993027;28;20050;-68
2023/03/06 07:51:04;;;;;;;1.92;1.40;;;2.50;99.90;;;;;;4992798;28;20491;-68
2023/03/06 07:53:31;;;;;;;3.75;1.48;;;2.70;99.90;;;;;;4993070;28;20050;-69
2023/03/06 07:55:56;;;;;;;3.05;1.40;;;2.60;99.90;;;;;;4976601;28;20038;-69
2023/03/06 07:58:22;;;;;;;4.50;2.00;;;2.60;99.90;;;;;;4976842;28;20045;-68
2023/03/06 08:00:48;;;;;;;3.22;1.58;;;2.70;99.90;;;;;;4993022;28;20047;-68
2023/03/06 08:03:14;;;;;;;3.33;1.65;;;2.70;99.90;;;;;;4992836;28;20042;-68
2023/03/06 08:05:40;;;;;;;4.03;1.90;;;2.70;99.90;;;;;;4992597;28;20121;-68
2023/03/06 08:08:06;;;;;;;2.90;1.48;;;2.70;99.90;;;;;;4976645;28;20034;-69
2023/03/06 08:10:31;;;;;;;4.28;1.95;;;2.70;99.90;;;;;;4992608;28;20089;-69
2023/03/06 08:12:57;;;;;;;4.10;1.55;;;2.80;99.90;;;;;;4992417;28;20030;-69
2023/03/06 08:15:22;;;;;;;3.08;1.80;;;2.80;99.90;;;;;;4976570;28;20101;-69
2023/03/06 08:17:49;;;;;;;2.58;1.48;;;2.80;99.90;;;;;;4992523;28;20482;-68
2023/03/06 08:20:17;;;;;;;4.05;1.38;;;2.90;99.90;;;;;;4992765;28;20030;-68
2023/03/06 08:22:43;;;;;;;3.40;1.10;;;3.00;99.90;;;;;;4976519;28;20403;-68
2023/03/06 08:25:09;;;;;;;3.50;1.05;;;3.10;99.90;;;;;;4992444;28;20046;-68
2023/03/06 08:27:35;;;;;;;5.65;1.27;;;3.20;99.90;;;;;;4992385;28;20461;-68
2023/03/06 08:30:00;;;;;;;3.22;1.85;;;3.30;99.90;;;;;;4992453;28;20045;-68
2023/03/06 08:32:27;;;;;;;3.72;1.20;;;3.40;99.90;;;;;;4975899;28;20039;-68
2023/03/06 08:34:52;;;;;;;2.42;1.10;;;3.40;99.90;;;;;;4992693;28;20077;-68
2023/03/06 08:37:18;;;;;;;3.47;1.30;;;3.60;99.90;;;;;;4992306;28;20506;-68
2023/03/06 08:39:44;;;;;;;2.55;1.08;;;3.80;99.90;;;;;;4979456;28;20035;-68
2023/03/06 08:42:10;;;;;;;1.92;1.00;;;4.80;99.90;;;;;;4996482;28;20050;-69
2023/03/06 08:44:35;;;;;;;2.08;1.05;;;6.30;99.90;;;;;;4996217;28;20038;-68
2023/03/06 08:47:02;;;;;;;4.03;0.85;;;7.60;99.90;;;;;;4996442;28;20044;-69
2023/03/06 08:49:28;;;;;;;4.97;1.02;;;8.80;99.90;;;;;;4996145;28;20049;-69
2023/03/06 08:51:54;;;;;;;2.83;0.80;;;10.00;99.90;;;;;;4995973;28;20084;-69
2023/03/06 08:54:19;;;;;;;1.98;0.70;;;10.90;99.90;;;;;;4996082;28;20042;-69
2023/03/06 08:56:45;;;;;;;3.63;0.50;;;11.20;97.70;;;;;;4996059;28;20418;-69
2023/03/06 08:59:12;;;;;;;3.65;0.60;;;11.40;96.50;;;;;;4995968;28;20036;-69
2023/03/06 09:01:38;;;;;;;3.42;0.60;;;11.10;95.30;;;;;;4995870;28;20468;-69
2023/03/06 09:04:07;;;;;;;3.63;0.60;;;10.40;94.70;;;;;;4995979;28;20395;-69
2023/03/06 09:06:36;;;;;;;3.22;0.50;;;9.60;95.40;;;;;;4995906;28;20038;-69
2023/03/06 09:09:02;;;;;;;2.40;0.70;;;9.20;96.20;;;;;;4996057;28;20046;-69
2023/03/06 09:11:28;;;;;;;2.40;0.70;;;9.30;96.20;;;;;;4979726;28;20085;-69
2023/03/06 09:13:54;;;;;;;2.75;0.60;;;9.40;96.10;;;;;;4995993;28;20077;-69
2023/03/06 09:16:20;;;;;;;2.92;0.40;;;9.40;95.70;;;;;;4995920;28;20517;-69
2023/03/06 09:18:45;;;;;;;3.03;0.60;;;9.50;95.30;;;;;;4995725;28;20042;-69
2023/03/06 09:21:11;;;;;;;3.90;0.60;;;9.80;94.50;;;;;;4995853;28;20050;-69
2023/03/06 09:23:38;;;;;;;2.60;0.63;;;10.00;93.60;;;;;;4995462;28;20449;-69
2023/03/06 09:26:05;;;;;;;2.47;0.50;;;9.90;93.40;;;;;;4995522;28;20088;-69
2023/03/06 09:28:31;;;;;;;3.78;0.60;;;9.70;93.40;;;;;;4995369;28;20085;-69
2023/03/06 09:30:57;;;;;;;6.13;0.80;;;9.40;93.60;;;;;;4995354;28;20042;-69
2023/03/06 09:33:23;;;;;;;1.83;0.50;;;9.10;93.70;;;;;;4995344;28;20125;-68
2023/03/06 09:35:52;;;;;;;1.15;0.57;;;8.90;94.10;;;;;;4995298;28;20038;-69
2023/03/06 09:38:19;;;;;;;4.65;0.57;;;8.80;94.10;;;;;;4995255;28;20046;-68
2023/03/06 09:41:05;;;;;;;4.03;0.60;;;9.00;94.40;;;;;;4995251;28;20038;-68
2023/03/06 09:43:39;;;;;;;3.53;0.82;;;9.60;94.30;;;;;;4995159;28;20049;-68
2023/03/06 09:46:28;;;;;;;5.13;0.73;;;10.40;93.30;;;;;;4995157;28;20089;-68
2023/03/06 09:49:29;;;;;;;2.15;0.63;;;11.10;91.10;;;;;;4996164;28;20031;-68
2023/03/06 09:52:05;;;;;;;3.88;0.68;;;11.60;90.30;;;;;;4978343;28;20030;-69
2023/03/06 09:54:57;;;;;;;4.35;0.70;;;12.20;88.50;;;;;;4994934;28;20130;-73
2023/03/06 09:57:27;;;;;;;4.68;0.75;;;12.90;86.70;;;;;;4995032;28;20038;-73
2023/03/06 10:00:04;;;;;;;3.58;0.60;;;13.60;82.90;;;;;;4994897;28;20038;-73
2023/03/06 10:02:53;;;;;;;4.43;0.75;;;14.60;79.90;;;;;;4978609;28;20121;-73
2023/03/06 10:05:20;;;;;;;5.15;0.80;;;15.60;75.60;;;;;;4982207;28;20080;-73
2023/03/06 10:08:22;;;;;;;4.32;0.85;;;16.40;70.40;;;;;;4994711;28;20046;-68
2023/03/06 10:10:56;;;;;;;3.22;0.60;;;16.90;66.80;;;;;;4978606;28;20042;-69
2023/03/06 10:13:31;;;;;;;4.03;0.70;;;16.90;64.70;;;;;;4979333;28;20092;-69
2023/03/06 10:16:22;;;;;;;2.08;0.60;;;17.00;62.80;;;;;;4994633;28;20039;-69
2023/03/06 10:18:48;;;;;;;3.22;0.57;;;17.20;61.80;;;;;;4994557;28;20042;-69
2023/03/06 10:21:34;;;;;;;2.70;0.60;;;17.10;61.10;;;;;;4994750;28;20052;-69
2023/03/06 10:24:18;;;;;;;4.90;0.60;;;16.90;60.50;;;;;;4994343;28;20042;-68
2023/03/06 10:26:54;;;;;;;1.98;0.40;;;16.10;59.30;;;;;;4994392;28;20042;-68
2023/03/06 10:29:38;;;;;;;3.75;0.65;;;15.00;60.70;;;;;;4994626;28;20387;-68
2023/03/06 10:32:30;;;;;;;3.35;0.60;;;14.60;62.50;;;;;;4978097;28;20038;-70
2023/03/06 10:35:00;;;;;;;3.92;0.50;;;14.60;60.20;;;;;;4994279;28;20053;-68
2023/03/06 10:37:28;;;;;;;2.20;0.47;;;13.80;61.40;;;;;;4977949;28;20066;-69
2023/03/06 10:40:14;;;;;;;3.10;0.63;;;14.00;62.00;;;;;;4995022;28;20038;-68
2023/03/06 10:42:40;;;;;;;3.90;0.52;;;14.70;60.90;;;;;;4994047;28;20053;-68
2023/03/06 10:45:08;;;;;;;2.42;0.50;;;14.40;60.30;;;;;;4994031;28;20042;-69
2023/03/06 10:47:35;;;;;;;3.00;0.50;;;13.90;60.80;;;;;;4993977;28;20092;-69
2023/03/06 10:50:05;;;;;;;2.80;0.30;;;13.20;61.60;;;;;;4993923;28;20129;-68
2023/03/06 10:52:33;;;;;;;4.90;0.50;;;12.30;62.40;;;;;;4977657;28;20077;-68
2023/03/06 10:55:23;;;;;;;2.92;0.40;;;11.50;64.10;;;;;;4994294;28;20035;-69
2023/03/06 10:57:49;;;;;;;2.58;0.55;;;10.80;64.70;;;;;;4993799;28;20375;-69
2023/03/06 11:00:44;;;;;;;4.78;0.50;;;11.40;66.90;;;;;;4993766;28;20125;-69
2023/03/06 11:03:22;;;;;;;0.82;0.30;;;12.60;65.60;;;;;;4977624;28;20054;-69
2023/03/06 11:06:08;;;;;;;3.25;0.60;;;13.40;61.00;;;;;;4977573;28;20046;-69
2023/03/06 11:08:34;;;;;;;1.40;0.20;;;14.00;59.30;;;;;;4993623;28;20038;-69
2023/03/06 11:11:20;;;;;;;1.85;0.40;;;14.40;58.70;;;;;;4993722;28;20125;-69
2023/03/06 11:13:57;;;;;;;2.40;0.52;;;14.70;56.70;;;;;;4993665;28;20053;-70
2023/03/06 11:16:31;;;;;;;3.17;0.40;;;14.70;56.80;;;;;;4977301;28;20117;-69
2023/03/06 11:18:57;;;;;;;4.00;0.65;;;14.60;56.70;;;;;;4993426;28;20466;-69
2023/03/06 11:21:32;;;;;;;4.55;0.47;;;14.40;58.30;;;;;;4993349;28;20046;-69
2023/03/06 11:24:04;;;;;;;5.00;0.60;;;14.20;59.60;;;;;;4993241;28;20150;-70
2023/03/06 11:26:45;;;;;;;4.75;0.70;;;13.80;59.90;;;;;;4993261;28;20406;-69
2023/03/06 11:29:39;;;;;;;2.90;0.60;;;13.60;59.70;;;;;;4993529;28;20057;-69
2023/03/06 11:32:08;;;;;;;4.00;0.70;;;13.40;59.60;;;;;;4993047;28;20042;-69
2023/03/06 11:34:39;;;;;;;4.22;0.65;;;12.70;61.10;;;;;;4993170;28;20047;-69
2023/03/06 11:37:28;;;;;;;2.40;0.70;;;12.30;61.70;;;;;;4993396;28;20053;-69
2023/03/06 11:40:12;;;;;;;3.60;0.50;;;11.60;62.60;;;;;;4993143;28;20046;-69
2023/03/06 11:42:44;;;;;;;2.97;0.70;;;10.80;64.40;;;;;;4993263;28;20045;-69
2023/03/06 11:45:37;;;;;;;4.30;1.15;;;10.20;66.30;;;;;;4992958;28;20454;-69
2023/03/06 11:48:15;;;;;;;3.70;0.82;;;9.60;67.70;;;;;;4992905;28;20190;-69
2023/03/06 11:50:45;;;;;;;3.45;0.55;;;9.20;69.40;;;;;;4993130;28;20070;-69
2023/03/06 11:53:19;;;;;;;3.20;0.60;;;9.00;70.00;;;;;;4992699;28;20042;-69
2023/03/06 11:55:54;;;;;;;3.65;0.90;;;8.70;70.60;;;;;;4992816;28;20124;-69
2023/03/06 11:58:55;;;;;;;3.58;0.60;;;8.50;71.30;;;;;;4993040;28;20111;-69
2023/03/06 12:01:56;;;;;;;2.05;0.50;;;8.30;71.00;;;;;;4991981;28;20058;-69
2023/03/06 12:04:33;;;;;;;3.08;0.70;;;8.20;71.70;;;;;;4988339;28;20050;-69
2023/03/06 12:07:34;;;;;;;2.45;0.40;;;8.10;72.70;;;;;;4976712;28;20133;-69
2023/03/06 12:10:22;;;;;;;2.90;0.50;;;8.10;72.00;;;;;;4972181;28;20054;-69
2023/03/06 12:13:46;;;;;;;1.70;0.50;;;8.00;71.00;;;;;;4991989;28;20493;-69
2023/03/06 12:16:28;;;;;;;1.95;0.47;;;8.10;70.50;;;;;;4899102;29;20052;-69
2023/03/06 12:19:15;;;;;;;4.03;0.32;;;8.50;68.60;;;;;;4899148;29;20172;-69
2023/03/06 12:22:11;;;;;;;2.05;0.47;;;9.20;67.30;;;;;;4965960;28;20052;-69
2023/03/06 12:24:59;;;;;;;2.03;0.50;;;9.70;65.60;;;;;;4976257;28;20042;-69
2023/03/06 12:27:30;;;;;;;3.65;0.90;;;10.10;66.00;;;;;;4992809;28;20038;-70
2023/03/06 12:30:33;;;;;;;2.90;0.73;;;10.40;65.00;;;;;;4992819;28;20054;-69
2023/03/06 12:33:04;;;;;;;4.05;0.60;;;10.60;64.50;;;;;;4992218;28;20411;-69
2023/03/06 12:35:53;;;;;;;2.10;0.50;;;10.80;65.00;;;;;;4992479;28;20185;-70
2023/03/06 12:38:28;;;;;;;2.20;0.57;;;10.50;65.30;;;;;;4992493;28;20039;-70
2023/03/06 12:41:05;;;;;;;2.78;0.75;;;10.30;64.60;;;;;;4976163;28;20073;-70
2023/03/06 12:44:07;;;;;;;5.32;0.82;;;9.90;65.00;;;;;;4976096;28;20034;-69
2023/03/06 12:46:43;;;;;;;2.33;0.77;;;9.60;65.40;;;;;;4992545;28;20077;-69
2023/03/06 12:49:21;;;;;;;3.42;0.88;;;9.60;66.90;;;;;;4976398;28;20507;-69
2023/03/06 12:51:47;;;;;;;4.18;0.93;;;9.70;68.10;;;;;;4992335;28;20387;-69
2023/03/06 12:54:13;;;;;;;3.33;1.02;;;9.80;67.90;;;;;;4976153;28;20038;-69
2023/03/06 12:56:40;;;;;;;4.47;1.38;;;10.00;68.30;;;;;;4992204;28;20031;-69
2023/03/06 12:59:35;;;;;;;2.65;0.90;;;10.00;67.30;;;;;;4992179;28;20513;-69
2023/03/06 13:02:26;;;;;;;5.00;1.42;;;9.80;65.50;;;;;;4992400;28;20050;-69
2023/03/06 13:05:10;;;;;;;4.70;1.40;;;9.60;67.20;;;;;;4992103;28;20475;-69
2023/03/06 13:07:58;;;;;;;5.32;1.35;;;9.30;68.00;;;;;;4992105;28;20498;-69
2023/03/06 13:10:32;;;;;;;3.97;1.48;;;9.40;68.40;;;;;;4992065;28;20407;-69